sensor_id;sensor_type;location;lat;lon;timestamp;pressure;altitude;pressure_sealevel;temperature;humidity
68077;BME280;54866;53.458;14.540;2022-07-17T00:00:52;101527.79;;;12.41;72.74
68077;BME280;54866;53.458;14.540;2022-07-17T00:03:22;101530.15;;;12.38;72.70
68077;BME280;54866;53.458;14.540;2022-07-17T00:05:51;101529.31;;;12.35;72.88
68077;BME280;54866;53.458;14.540;2022-07-17T00:08:21;101530.01;;;12.32;73.09
68077;BME280;54866;53.458;14.540;2022-07-17T00:10:51;101529.38;;;12.29;73.20
68077;BME280;54866;53.458;14.540;2022-07-17T00:13:21;101531.00;;;12.26;73.55
68077;BME280;54866;53.458;14.540;2022-07-17T00:15:51;101534.23;;;12.23;73.91
68077;BME280;54866;53.458;14.540;2022-07-17T00:18:21;101532.19;;;12.19;73.93
68077;BME280;54866;53.458;14.540;2022-07-17T00:20:51;101536.99;;;12.16;74.22
68077;BME280;54866;53.458;14.540;2022-07-17T00:23:21;101533.11;;;12.14;74.22
68077;BME280;54866;53.458;14.540;2022-07-17T00:25:51;101529.98;;;12.11;74.30
68077;BME280;54866;53.458;14.540;2022-07-17T00:28:22;101537.06;;;12.08;74.39
68077;BME280;54866;53.458;14.540;2022-07-17T00:30:52;101537.69;;;12.04;74.66
68077;BME280;54866;53.458;14.540;2022-07-17T00:33:21;101539.94;;;12.02;74.66
68077;BME280;54866;53.458;14.540;2022-07-17T00:35:52;101538.99;;;12.01;75.06
68077;BME280;54866;53.458;14.540;2022-07-17T00:38:21;101536.31;;;11.99;74.96
68077;BME280;54866;53.458;14.540;2022-07-17T00:40:55;101540.90;;;11.96;75.12
68077;BME280;54866;53.458;14.540;2022-07-17T00:43:25;101542.55;;;11.93;75.15
68077;BME280;54866;53.458;14.540;2022-07-17T00:46:02;101548.64;;;11.89;75.49
68077;BME280;54866;53.458;14.540;2022-07-17T00:48:33;101544.52;;;11.85;75.90
68077;BME280;54866;53.458;14.540;2022-07-17T00:51:03;101541.40;;;11.82;75.74
68077;BME280;54866;53.458;14.540;2022-07-17T00:53:34;101543.56;;;11.78;75.98
68077;BME280;54866;53.458;14.540;2022-07-17T00:56:06;101541.17;;;11.74;75.95
68077;BME280;54866;53.458;14.540;2022-07-17T00:58:37;101545.14;;;11.71;76.00
68077;BME280;54866;53.458;14.540;2022-07-17T01:01:07;101548.92;;;11.67;76.37
68077;BME280;54866;53.458;14.540;2022-07-17T01:03:37;101548.52;;;11.63;76.57
68077;BME280;54866;53.458;14.540;2022-07-17T01:06:08;101549.52;;;11.58;76.98
68077;BME280;54866;53.458;14.540;2022-07-17T01:08:38;101552.06;;;11.55;77.02
68077;BME280;54866;53.458;14.540;2022-07-17T01:11:09;101553.02;;;11.51;77.34
68077;BME280;54866;53.458;14.540;2022-07-17T01:13:39;101554.02;;;11.47;77.34
68077;BME280;54866;53.458;14.540;2022-07-17T01:16:09;101554.30;;;11.42;77.38
68077;BME280;54866;53.458;14.540;2022-07-17T01:18:39;101556.62;;;11.37;77.46
68077;BME280;54866;53.458;14.540;2022-07-17T01:21:10;101561.38;;;11.35;77.92
68077;BME280;54866;53.458;14.540;2022-07-17T01:23:40;101558.66;;;11.31;78.07
68077;BME280;54866;53.458;14.540;2022-07-17T01:26:10;101558.14;;;11.28;78.05
68077;BME280;54866;53.458;14.540;2022-07-17T01:28:40;101557.48;;;11.24;78.06
68077;BME280;54866;53.458;14.540;2022-07-17T01:31:12;101563.55;;;11.21;78.41
68077;BME280;54866;53.458;14.540;2022-07-17T01:33:42;101563.54;;;11.15;78.73
68077;BME280;54866;53.458;14.540;2022-07-17T01:36:12;101571.06;;;11.11;78.21
68077;BME280;54866;53.458;14.540;2022-07-17T01:38:42;101566.25;;;11.06;78.26
68077;BME280;54866;53.458;14.540;2022-07-17T01:41:11;101566.42;;;11.01;78.58
68077;BME280;54866;53.458;14.540;2022-07-17T01:43:41;101564.31;;;10.96;78.73
68077;BME280;54866;53.458;14.540;2022-07-17T01:46:11;101559.69;;;10.91;79.09
68077;BME280;54866;53.458;14.540;2022-07-17T01:48:41;101560.61;;;10.85;79.37
68077;BME280;54866;53.458;14.540;2022-07-17T01:51:11;101562.35;;;10.80;79.28
68077;BME280;54866;53.458;14.540;2022-07-17T01:53:40;101561.14;;;10.74;79.34
68077;BME280;54866;53.458;14.540;2022-07-17T01:56:10;101562.41;;;10.71;79.89
68077;BME280;54866;53.458;14.540;2022-07-17T01:58:40;101562.98;;;10.68;79.87
68077;BME280;54866;53.458;14.540;2022-07-17T02:01:10;101558.68;;;10.64;79.82
68077;BME280;54866;53.458;14.540;2022-07-17T02:03:41;101555.88;;;10.61;79.88
68077;BME280;54866;53.458;14.540;2022-07-17T02:06:11;101555.04;;;10.57;79.98
68077;BME280;54866;53.458;14.540;2022-07-17T02:08:42;101553.45;;;10.54;80.20
68077;BME280;54866;53.458;14.540;2022-07-17T02:11:11;101554.15;;;10.52;80.19
68077;BME280;54866;53.458;14.540;2022-07-17T02:13:41;101552.92;;;10.49;80.13
68077;BME280;54866;53.458;14.540;2022-07-17T02:16:11;101550.19;;;10.45;80.33
68077;BME280;54866;53.458;14.540;2022-07-17T02:18:41;101544.19;;;10.43;80.24
68077;BME280;54866;53.458;14.540;2022-07-17T02:21:11;101545.58;;;10.40;80.45
68077;BME280;54866;53.458;14.540;2022-07-17T02:23:42;101548.74;;;10.37;80.40
68077;BME280;54866;53.458;14.540;2022-07-17T02:26:12;101544.85;;;10.35;80.66
68077;BME280;54866;53.458;14.540;2022-07-17T02:28:49;101545.94;;;10.32;80.73
68077;BME280;54866;53.458;14.540;2022-07-17T02:31:19;101544.54;;;10.29;80.77
68077;BME280;54866;53.458;14.540;2022-07-17T02:33:49;101545.05;;;10.26;80.93
68077;BME280;54866;53.458;14.540;2022-07-17T02:36:21;101542.00;;;10.24;80.85
68077;BME280;54866;53.458;14.540;2022-07-17T02:38:54;101538.94;;;10.22;80.92
68077;BME280;54866;53.458;14.540;2022-07-17T02:41:24;101541.84;;;10.21;80.84
68077;BME280;54866;53.458;14.540;2022-07-17T02:43:54;101539.56;;;10.20;81.15
68077;BME280;54866;53.458;14.540;2022-07-17T02:46:24;101540.80;;;10.21;80.91
68077;BME280;54866;53.458;14.540;2022-07-17T02:48:54;101541.98;;;10.21;81.00
68077;BME280;54866;53.458;14.540;2022-07-17T02:51:23;101541.60;;;10.22;80.99
68077;BME280;54866;53.458;14.540;2022-07-17T02:53:53;101546.66;;;10.23;80.96
68077;BME280;54866;53.458;14.540;2022-07-17T02:56:23;101542.09;;;10.22;81.02
68077;BME280;54866;53.458;14.540;2022-07-17T02:58:52;101548.33;;;10.21;80.80
68077;BME280;54866;53.458;14.540;2022-07-17T03:01:22;101549.73;;;10.22;80.73
68077;BME280;54866;53.458;14.540;2022-07-17T03:03:52;101547.25;;;10.22;80.56
68077;BME280;54866;53.458;14.540;2022-07-17T03:06:22;101540.77;;;10.21;80.52
68077;BME280;54866;53.458;14.540;2022-07-17T03:08:52;101542.05;;;10.23;80.39
68077;BME280;54866;53.458;14.540;2022-07-17T03:11:22;101545.92;;;10.23;80.61
68077;BME280;54866;53.458;14.540;2022-07-17T03:13:51;101545.73;;;10.24;80.56
68077;BME280;54866;53.458;14.540;2022-07-17T03:16:21;101547.77;;;10.25;80.40
68077;BME280;54866;53.458;14.540;2022-07-17T03:18:51;101550.66;;;10.27;80.34
68077;BME280;54866;53.458;14.540;2022-07-17T03:21:21;101557.13;;;10.28;80.03
68077;BME280;54866;53.458;14.540;2022-07-17T03:23:53;101558.84;;;10.28;79.98
68077;BME280;54866;53.458;14.540;2022-07-17T03:26:23;101565.59;;;10.30;79.78
68077;BME280;54866;53.458;14.540;2022-07-17T03:28:53;101566.53;;;10.32;79.66
68077;BME280;54866;53.458;14.540;2022-07-17T03:31:23;101574.00;;;10.33;79.96
68077;BME280;54866;53.458;14.540;2022-07-17T03:33:52;101573.77;;;10.34;79.72
68077;BME280;54866;53.458;14.540;2022-07-17T03:36:22;101575.17;;;10.37;79.65
68077;BME280;54866;53.458;14.540;2022-07-17T03:38:52;101585.29;;;10.39;79.69
68077;BME280;54866;53.458;14.540;2022-07-17T03:41:22;101581.14;;;10.40;79.40
68077;BME280;54866;53.458;14.540;2022-07-17T03:43:51;101585.83;;;10.42;79.46
68077;BME280;54866;53.458;14.540;2022-07-17T03:46:21;101590.44;;;10.44;79.36
68077;BME280;54866;53.458;14.540;2022-07-17T03:48:51;101593.13;;;10.46;79.22
68077;BME280;54866;53.458;14.540;2022-07-17T03:51:21;101595.80;;;10.48;79.13
68077;BME280;54866;53.458;14.540;2022-07-17T03:53:51;101598.67;;;10.53;78.97
68077;BME280;54866;53.458;14.540;2022-07-17T03:56:20;101601.36;;;10.54;78.88
68077;BME280;54866;53.458;14.540;2022-07-17T03:58:50;101599.36;;;10.55;78.75
68077;BME280;54866;53.458;14.540;2022-07-17T04:01:20;101604.62;;;10.59;78.52
68077;BME280;54866;53.458;14.540;2022-07-17T04:03:50;101605.31;;;10.62;78.51
68077;BME280;54866;53.458;14.540;2022-07-17T04:06:19;101610.28;;;10.67;78.18
68077;BME280;54866;53.458;14.540;2022-07-17T04:08:49;101611.60;;;10.71;78.10
68077;BME280;54866;53.458;14.540;2022-07-17T04:11:19;101615.54;;;10.75;77.89
68077;BME280;54866;53.458;14.540;2022-07-17T04:13:49;101607.91;;;10.79;77.61
68077;BME280;54866;53.458;14.540;2022-07-17T04:16:19;101603.45;;;10.83;77.41
68077;BME280;54866;53.458;14.540;2022-07-17T04:18:48;101612.40;;;10.88;77.36
68077;BME280;54866;53.458;14.540;2022-07-17T04:21:18;101617.70;;;10.94;77.12
68077;BME280;54866;53.458;14.540;2022-07-17T04:23:48;101618.74;;;11.00;76.88
68077;BME280;54866;53.458;14.540;2022-07-17T04:26:18;101623.73;;;11.06;76.66
68077;BME280;54866;53.458;14.540;2022-07-17T04:28:48;101630.55;;;11.18;76.38
68077;BME280;54866;53.458;14.540;2022-07-17T04:31:18;101633.27;;;11.28;76.08
68077;BME280;54866;53.458;14.540;2022-07-17T04:33:48;101633.11;;;11.36;75.74
68077;BME280;54866;53.458;14.540;2022-07-17T04:36:20;101629.08;;;11.43;75.65
68077;BME280;54866;53.458;14.540;2022-07-17T04:38:50;101636.31;;;11.54;75.22
68077;BME280;54866;53.458;14.540;2022-07-17T04:41:20;101642.90;;;11.61;75.01
68077;BME280;54866;53.458;14.540;2022-07-17T04:43:50;101646.33;;;11.67;74.79
68077;BME280;54866;53.458;14.540;2022-07-17T04:46:19;101646.66;;;11.75;74.47
68077;BME280;54866;53.458;14.540;2022-07-17T04:48:49;101650.02;;;11.87;74.23
68077;BME280;54866;53.458;14.540;2022-07-17T04:51:19;101649.88;;;11.99;73.80
68077;BME280;54866;53.458;14.540;2022-07-17T04:53:49;101649.27;;;12.15;73.40
68077;BME280;54866;53.458;14.540;2022-07-17T04:56:18;101650.84;;;12.30;72.89
68077;BME280;54866;53.458;14.540;2022-07-17T04:58:48;101659.27;;;12.46;72.68
68077;BME280;54866;53.458;14.540;2022-07-17T05:01:18;101662.64;;;12.64;72.18
68077;BME280;54866;53.458;14.540;2022-07-17T05:03:48;101658.13;;;12.85;71.42
68077;BME280;54866;53.458;14.540;2022-07-17T05:06:18;101665.30;;;13.07;71.12
68077;BME280;54866;53.458;14.540;2022-07-17T05:08:48;101667.29;;;13.26;70.68
68077;BME280;54866;53.458;14.540;2022-07-17T05:11:17;101668.60;;;13.44;69.85
68077;BME280;54866;53.458;14.540;2022-07-17T05:13:47;101664.86;;;13.64;69.31
68077;BME280;54866;53.458;14.540;2022-07-17T05:16:17;101663.94;;;13.71;68.55
68077;BME280;54866;53.458;14.540;2022-07-17T05:18:47;101661.89;;;13.77;68.81
68077;BME280;54866;53.458;14.540;2022-07-17T05:21:17;101660.66;;;13.81;68.61
68077;BME280;54866;53.458;14.540;2022-07-17T05:23:47;101663.17;;;13.85;68.24
68077;BME280;54866;53.458;14.540;2022-07-17T05:26:17;101661.77;;;13.87;68.05
68077;BME280;54866;53.458;14.540;2022-07-17T05:28:47;101662.56;;;13.91;68.06
68077;BME280;54866;53.458;14.540;2022-07-17T05:31:16;101659.64;;;13.99;68.12
68077;BME280;54866;53.458;14.540;2022-07-17T05:33:47;101659.13;;;14.17;67.77
68077;BME280;54866;53.458;14.540;2022-07-17T05:36:16;101662.16;;;14.28;67.19
68077;BME280;54866;53.458;14.540;2022-07-17T05:38:46;101663.71;;;14.33;66.63
68077;BME280;54866;53.458;14.540;2022-07-17T05:41:16;101659.90;;;14.39;65.41
68077;BME280;54866;53.458;14.540;2022-07-17T05:43:46;101659.38;;;14.52;65.56
68077;BME280;54866;53.458;14.540;2022-07-17T05:46:16;101654.84;;;14.72;65.07
68077;BME280;54866;53.458;14.540;2022-07-17T05:48:46;101652.37;;;15.02;63.96
68077;BME280;54866;53.458;14.540;2022-07-17T05:51:15;101649.41;;;15.25;62.49
68077;BME280;54866;53.458;14.540;2022-07-17T05:53:45;101650.45;;;15.38;61.88
68077;BME280;54866;53.458;14.540;2022-07-17T05:56:15;101651.95;;;15.52;61.74
68077;BME280;54866;53.458;14.540;2022-07-17T05:58:45;101657.09;;;15.65;60.99
68077;BME280;54866;53.458;14.540;2022-07-17T06:01:14;101657.38;;;16.01;61.07
68077;BME280;54866;53.458;14.540;2022-07-17T06:03:44;101656.98;;;16.67;59.38
68077;BME280;54866;53.458;14.540;2022-07-17T06:06:14;101652.90;;;16.93;58.04
68077;BME280;54866;53.458;14.540;2022-07-17T06:08:44;101654.77;;;16.80;56.66
68077;BME280;54866;53.458;14.540;2022-07-17T06:11:14;101661.27;;;16.69;57.40
68077;BME280;54866;53.458;14.540;2022-07-17T06:13:45;101662.16;;;16.69;57.21
68077;BME280;54866;53.458;14.540;2022-07-17T06:16:14;101661.40;;;16.72;57.53
68077;BME280;54866;53.458;14.540;2022-07-17T06:18:44;101661.80;;;16.67;57.48
68077;BME280;54866;53.458;14.540;2022-07-17T06:21:14;101662.59;;;16.60;57.21
68077;BME280;54866;53.458;14.540;2022-07-17T06:23:44;101668.28;;;16.57;57.26
68077;BME280;54866;53.458;14.540;2022-07-17T06:26:14;101672.13;;;16.42;56.71
68077;BME280;54866;53.458;14.540;2022-07-17T06:28:44;101677.79;;;16.35;57.44
68077;BME280;54866;53.458;14.540;2022-07-17T06:31:14;101677.70;;;16.32;57.76
68077;BME280;54866;53.458;14.540;2022-07-17T06:33:43;101676.77;;;16.23;57.47
68077;BME280;54866;53.458;14.540;2022-07-17T06:36:13;101682.55;;;16.12;57.62
68077;BME280;54866;53.458;14.540;2022-07-17T06:38:43;101683.89;;;16.03;58.03
68077;BME280;54866;53.458;14.540;2022-07-17T06:41:13;101689.21;;;16.03;58.38
68077;BME280;54866;53.458;14.540;2022-07-17T06:43:43;101691.73;;;16.05;58.64
68077;BME280;54866;53.458;14.540;2022-07-17T06:46:13;101689.12;;;16.00;58.56
68077;BME280;54866;53.458;14.540;2022-07-17T06:48:43;101696.73;;;16.01;58.45
68077;BME280;54866;53.458;14.540;2022-07-17T06:51:13;101700.47;;;16.03;58.77
68077;BME280;54866;53.458;14.540;2022-07-17T06:53:43;101700.48;;;16.07;59.07
68077;BME280;54866;53.458;14.540;2022-07-17T06:56:13;101703.39;;;16.14;58.79
68077;BME280;54866;53.458;14.540;2022-07-17T06:58:42;101703.92;;;16.20;57.84
68077;BME280;54866;53.458;14.540;2022-07-17T07:01:12;101707.63;;;16.21;57.67
68077;BME280;54866;53.458;14.540;2022-07-17T07:03:42;101708.98;;;16.25;58.04
68077;BME280;54866;53.458;14.540;2022-07-17T07:06:12;101710.07;;;16.34;57.95
68077;BME280;54866;53.458;14.540;2022-07-17T07:08:42;101708.02;;;16.30;57.11
68077;BME280;54866;53.458;14.540;2022-07-17T07:11:12;101707.38;;;16.23;57.26
68077;BME280;54866;53.458;14.540;2022-07-17T07:13:42;101711.01;;;16.17;57.38
68077;BME280;54866;53.458;14.540;2022-07-17T07:16:12;101715.52;;;16.20;57.58
68077;BME280;54866;53.458;14.540;2022-07-17T07:18:41;101717.45;;;16.26;57.53
68077;BME280;54866;53.458;14.540;2022-07-17T07:21:11;101713.36;;;16.22;56.69
68077;BME280;54866;53.458;14.540;2022-07-17T07:23:41;101716.10;;;16.19;57.28
68077;BME280;54866;53.458;14.540;2022-07-17T07:26:11;101711.98;;;16.28;56.42
68077;BME280;54866;53.458;14.540;2022-07-17T07:28:41;101706.39;;;16.26;56.11
68077;BME280;54866;53.458;14.540;2022-07-17T07:31:11;101711.91;;;16.33;56.61
68077;BME280;54866;53.458;14.540;2022-07-17T07:33:41;101703.39;;;16.43;56.28
68077;BME280;54866;53.458;14.540;2022-07-17T07:36:11;101706.21;;;16.57;55.44
68077;BME280;54866;53.458;14.540;2022-07-17T07:38:41;101711.09;;;16.75;55.37
68077;BME280;54866;53.458;14.540;2022-07-17T07:41:11;101710.69;;;16.98;55.51
68077;BME280;54866;53.458;14.540;2022-07-17T07:43:41;101706.84;;;17.07;54.60
68077;BME280;54866;53.458;14.540;2022-07-17T07:46:10;101710.37;;;17.14;54.40
68077;BME280;54866;53.458;14.540;2022-07-17T07:48:40;101709.76;;;17.24;54.43
68077;BME280;54866;53.458;14.540;2022-07-17T07:51:10;101710.11;;;17.38;54.45
68077;BME280;54866;53.458;14.540;2022-07-17T07:53:40;101707.71;;;17.43;54.02
68077;BME280;54866;53.458;14.540;2022-07-17T07:56:10;101713.19;;;17.51;54.53
68077;BME280;54866;53.458;14.540;2022-07-17T07:58:40;101711.28;;;17.64;53.07
68077;BME280;54866;53.458;14.540;2022-07-17T08:01:10;101711.75;;;17.73;53.09
68077;BME280;54866;53.458;14.540;2022-07-17T08:03:40;101709.67;;;17.82;52.31
68077;BME280;54866;53.458;14.540;2022-07-17T08:06:10;101710.35;;;17.91;51.99
68077;BME280;54866;53.458;14.540;2022-07-17T08:08:40;101713.31;;;18.00;51.22
68077;BME280;54866;53.458;14.540;2022-07-17T08:11:10;101712.49;;;17.88;51.12
68077;BME280;54866;53.458;14.540;2022-07-17T08:13:40;101721.13;;;17.90;51.65
68077;BME280;54866;53.458;14.540;2022-07-17T08:16:10;101721.10;;;17.93;51.70
68077;BME280;54866;53.458;14.540;2022-07-17T08:18:40;101718.66;;;18.02;51.66
68077;BME280;54866;53.458;14.540;2022-07-17T08:21:10;101722.08;;;18.07;50.97
68077;BME280;54866;53.458;14.540;2022-07-17T08:23:40;101724.23;;;18.09;50.21
68077;BME280;54866;53.458;14.540;2022-07-17T08:26:10;101725.21;;;18.17;49.91
68077;BME280;54866;53.458;14.540;2022-07-17T08:28:40;101730.05;;;18.40;50.40
68077;BME280;54866;53.458;14.540;2022-07-17T08:31:09;101723.90;;;18.71;50.13
68077;BME280;54866;53.458;14.540;2022-07-17T08:33:39;101723.50;;;19.06;48.81
68077;BME280;54866;53.458;14.540;2022-07-17T08:36:09;101720.34;;;19.29;47.50
68077;BME280;54866;53.458;14.540;2022-07-17T08:38:39;101722.96;;;19.45;47.14
68077;BME280;54866;53.458;14.540;2022-07-17T08:41:09;101721.34;;;19.66;46.23
68077;BME280;54866;53.458;14.540;2022-07-17T08:43:39;101718.19;;;19.77;45.63
68077;BME280;54866;53.458;14.540;2022-07-17T08:46:11;101721.05;;;19.72;45.46
68077;BME280;54866;53.458;14.540;2022-07-17T08:48:41;101729.48;;;19.61;46.02
68077;BME280;54866;53.458;14.540;2022-07-17T08:51:11;101732.09;;;19.62;46.30
68077;BME280;54866;53.458;14.540;2022-07-17T08:53:44;101734.05;;;19.69;46.58
68077;BME280;54866;53.458;14.540;2022-07-17T08:56:14;101735.27;;;19.71;46.77
68077;BME280;54866;53.458;14.540;2022-07-17T08:58:43;101731.80;;;19.59;46.40
68077;BME280;54866;53.458;14.540;2022-07-17T09:01:13;101737.45;;;19.36;46.32
68077;BME280;54866;53.458;14.540;2022-07-17T09:03:54;101740.04;;;19.10;46.87
68077;BME280;54866;53.458;14.540;2022-07-17T09:06:24;101744.38;;;19.08;47.77
68077;BME280;54866;53.458;14.540;2022-07-17T09:09:06;101742.54;;;19.12;48.29
68077;BME280;54866;53.458;14.540;2022-07-17T09:11:49;101739.39;;;19.18;47.68
68077;BME280;54866;53.458;14.540;2022-07-17T09:14:21;101744.77;;;19.13;46.72
68077;BME280;54866;53.458;14.540;2022-07-17T09:16:54;101742.86;;;19.07;46.82
68077;BME280;54866;53.458;14.540;2022-07-17T09:19:30;101744.58;;;19.15;47.03
68077;BME280;54866;53.458;14.540;2022-07-17T09:22:11;101746.64;;;19.41;47.09
68077;BME280;54866;53.458;14.540;2022-07-17T09:24:44;101743.78;;;19.48;46.44
68077;BME280;54866;53.458;14.540;2022-07-17T09:27:28;101734.23;;;19.40;45.67
68077;BME280;54866;53.458;14.540;2022-07-17T09:30:00;101731.92;;;19.31;45.90
68077;BME280;54866;53.458;14.540;2022-07-17T09:32:33;101734.64;;;19.41;46.25
68077;BME280;54866;53.458;14.540;2022-07-17T09:35:06;101736.08;;;19.74;46.37
68077;BME280;54866;53.458;14.540;2022-07-17T09:37:37;101730.17;;;20.07;45.65
68077;BME280;54866;53.458;14.540;2022-07-17T09:40:12;101723.63;;;20.26;45.31
68077;BME280;54866;53.458;14.540;2022-07-17T09:43:04;101725.47;;;20.60;44.22
68077;BME280;54866;53.458;14.540;2022-07-17T09:45:35;101714.96;;;20.76;43.50
68077;BME280;54866;53.458;14.540;2022-07-17T09:48:05;101715.62;;;20.97;43.51
68077;BME280;54866;53.458;14.540;2022-07-17T09:50:36;101714.53;;;21.14;43.77
68077;BME280;54866;53.458;14.540;2022-07-17T09:53:06;101711.23;;;21.06;42.63
68077;BME280;54866;53.458;14.540;2022-07-17T09:55:39;101719.48;;;20.99;43.30
68077;BME280;54866;53.458;14.540;2022-07-17T09:58:11;101720.64;;;21.02;42.95
68077;BME280;54866;53.458;14.540;2022-07-17T10:00:41;101717.92;;;21.12;43.05
68077;BME280;54866;53.458;14.540;2022-07-17T10:03:12;101719.13;;;21.08;42.30
68077;BME280;54866;53.458;14.540;2022-07-17T10:05:47;101725.40;;;20.93;42.37
68077;BME280;54866;53.458;14.540;2022-07-17T10:08:17;101726.52;;;20.55;42.74
68077;BME280;54866;53.458;14.540;2022-07-17T10:10:49;101725.33;;;20.53;43.36
68077;BME280;54866;53.458;14.540;2022-07-17T10:13:21;101726.42;;;20.76;43.58
68077;BME280;54866;53.458;14.540;2022-07-17T10:15:52;101718.86;;;20.89;42.91
68077;BME280;54866;53.458;14.540;2022-07-17T10:18:35;101722.11;;;20.88;42.61
68077;BME280;54866;53.458;14.540;2022-07-17T10:21:16;101723.59;;;21.10;42.99
68077;BME280;54866;53.458;14.540;2022-07-17T10:24:05;101727.69;;;21.50;42.35
68077;BME280;54866;53.458;14.540;2022-07-17T10:26:37;101721.13;;;21.53;41.73
68077;BME280;54866;53.458;14.540;2022-07-17T10:29:24;101724.80;;;21.65;42.00
68077;BME280;54866;53.458;14.540;2022-07-17T10:31:54;101732.08;;;21.96;41.17
68077;BME280;54866;53.458;14.540;2022-07-17T10:34:39;101730.65;;;22.18;40.63
68077;BME280;54866;53.458;14.540;2022-07-17T10:37:23;101727.62;;;21.97;40.44
68077;BME280;54866;53.458;14.540;2022-07-17T10:40:06;101726.47;;;21.84;40.83
68077;BME280;54866;53.458;14.540;2022-07-17T10:42:59;101731.03;;;21.62;40.66
68077;BME280;54866;53.458;14.540;2022-07-17T10:45:32;101727.95;;;21.66;41.71
68077;BME280;54866;53.458;14.540;2022-07-17T10:48:04;101734.87;;;21.89;41.11
68077;BME280;54866;53.458;14.540;2022-07-17T10:50:37;101725.67;;;22.09;40.98
68077;BME280;54866;53.458;14.540;2022-07-17T10:53:11;101733.80;;;22.25;40.26
68077;BME280;54866;53.458;14.540;2022-07-17T10:55:43;101736.71;;;22.15;39.92
68077;BME280;54866;53.458;14.540;2022-07-17T10:58:25;101734.73;;;22.09;40.05
68077;BME280;54866;53.458;14.540;2022-07-17T11:01:12;101729.15;;;21.97;40.17
68077;BME280;54866;53.458;14.540;2022-07-17T11:03:44;101738.05;;;22.03;39.74
68077;BME280;54866;53.458;14.540;2022-07-17T11:06:16;101736.11;;;21.99;40.44
68077;BME280;54866;53.458;14.540;2022-07-17T11:08:49;101737.40;;;22.23;40.86
68077;BME280;54866;53.458;14.540;2022-07-17T11:11:20;101738.15;;;22.42;40.12
68077;BME280;54866;53.458;14.540;2022-07-17T11:13:51;101737.56;;;22.55;40.18
68077;BME280;54866;53.458;14.540;2022-07-17T11:16:29;101742.55;;;22.70;39.66
68077;BME280;54866;53.458;14.540;2022-07-17T11:18:59;101740.46;;;23.03;39.19
68077;BME280;54866;53.458;14.540;2022-07-17T11:21:29;101744.81;;;23.13;37.59
68077;BME280;54866;53.458;14.540;2022-07-17T11:24:00;101746.05;;;22.87;37.92
68077;BME280;54866;53.458;14.540;2022-07-17T11:26:30;101746.98;;;22.95;38.47
68077;BME280;54866;53.458;14.540;2022-07-17T11:29:02;101746.39;;;23.11;38.38
68077;BME280;54866;53.458;14.540;2022-07-17T11:31:32;101741.63;;;23.05;38.03
68077;BME280;54866;53.458;14.540;2022-07-17T11:34:04;101741.72;;;23.07;38.52
68077;BME280;54866;53.458;14.540;2022-07-17T11:36:38;101736.52;;;23.18;38.44
68077;BME280;54866;53.458;14.540;2022-07-17T11:39:11;101736.36;;;23.12;38.36
68077;BME280;54866;53.458;14.540;2022-07-17T11:41:43;101739.86;;;23.06;38.59
68077;BME280;54866;53.458;14.540;2022-07-17T11:44:14;101746.69;;;23.09;38.51
68077;BME280;54866;53.458;14.540;2022-07-17T11:46:46;101744.40;;;23.22;37.98
68077;BME280;54866;53.458;14.540;2022-07-17T11:49:26;101751.02;;;23.45;38.70
68077;BME280;54866;53.458;14.540;2022-07-17T11:51:58;101747.34;;;23.55;37.46
68077;BME280;54866;53.458;14.540;2022-07-17T11:54:28;101750.08;;;23.53;37.56
68077;BME280;54866;53.458;14.540;2022-07-17T11:56:59;101755.46;;;23.66;36.97
68077;BME280;54866;53.458;14.540;2022-07-17T11:59:32;101750.27;;;23.52;37.03
68077;BME280;54866;53.458;14.540;2022-07-17T12:02:10;101751.77;;;23.43;37.57
68077;BME280;54866;53.458;14.540;2022-07-17T12:04:51;101756.02;;;23.46;37.47
68077;BME280;54866;53.458;14.540;2022-07-17T12:07:21;101748.63;;;23.44;36.18
68077;BME280;54866;53.458;14.540;2022-07-17T12:09:52;101748.41;;;23.29;35.96
68077;BME280;54866;53.458;14.540;2022-07-17T12:12:23;101748.25;;;22.96;37.13
68077;BME280;54866;53.458;14.540;2022-07-17T12:14:54;101751.45;;;22.79;37.15
68077;BME280;54866;53.458;14.540;2022-07-17T12:17:36;101750.38;;;22.60;37.98
68077;BME280;54866;53.458;14.540;2022-07-17T12:20:08;101749.55;;;22.62;38.29
68077;BME280;54866;53.458;14.540;2022-07-17T12:22:46;101745.75;;;22.78;38.56
68077;BME280;54866;53.458;14.540;2022-07-17T12:25:26;101739.67;;;22.66;38.39
68077;BME280;54866;53.458;14.540;2022-07-17T12:27:56;101741.67;;;22.41;38.88
68077;BME280;54866;53.458;14.540;2022-07-17T12:30:26;101733.70;;;22.18;39.07
68077;BME280;54866;53.458;14.540;2022-07-17T12:32:56;101736.82;;;21.97;39.50
68077;BME280;54866;53.458;14.540;2022-07-17T12:35:26;101739.26;;;21.89;39.83
68077;BME280;54866;53.458;14.540;2022-07-17T12:37:56;101734.80;;;21.79;39.78
68077;BME280;54866;53.458;14.540;2022-07-17T12:40:26;101730.84;;;21.75;39.54
68077;BME280;54866;53.458;14.540;2022-07-17T12:42:56;101734.54;;;21.71;39.00
68077;BME280;54866;53.458;14.540;2022-07-17T12:45:28;101732.04;;;21.64;39.49
68077;BME280;54866;53.458;14.540;2022-07-17T12:47:57;101727.61;;;21.72;39.95
68077;BME280;54866;53.458;14.540;2022-07-17T12:50:27;101724.61;;;21.77;39.91
68077;BME280;54866;53.458;14.540;2022-07-17T12:52:57;101725.61;;;21.84;40.22
68077;BME280;54866;53.458;14.540;2022-07-17T12:55:27;101727.14;;;21.99;40.63
68077;BME280;54866;53.458;14.540;2022-07-17T12:57:57;101724.85;;;22.23;39.28
68077;BME280;54866;53.458;14.540;2022-07-17T13:00:27;101713.61;;;22.39;38.11